Time;durP1;ratioP1;P1;durP2;ratioP2;P2;SDS_P1;SDS_P2;PMS_P1;PMS_P2;Temp;Humidity;BMP_temperature;BMP_pressure;BME280_temperature;BME280_humidity;BME280_pressure;Samples;Min_cycle;Max_cycle;Signal;HPM_P1;HPM_P2
2022/12/14 00:01:40;;;;;;;25.13;14.98;;;;;;;-1.68;100.00;100111.69;5034156;28;20034;-76
2022/12/14 00:04:06;;;;;;;29.92;17.25;;;;;;;-1.73;100.00;100127.00;5000655;28;20040;-76
2022/12/14 00:06:32;;;;;;;23.50;13.10;;;;;;;-1.78;100.00;100122.91;5016281;28;20033;-75
2022/12/14 00:09:00;;;;;;;14.00;8.90;;;;;;;-1.84;100.00;100123.34;4999877;28;20040;-75
2022/12/14 00:11:26;;;;;;;15.82;9.77;;;;;;;-1.93;100.00;100123.16;5000078;28;20091;-76
2022/12/14 00:13:57;;;;;;;17.40;9.90;;;;;;;-1.97;100.00;100127.84;5000230;28;20132;-75
2022/12/14 00:16:25;;;;;;;22.38;10.25;;;;;;;-1.87;100.00;100133.28;5000616;28;20040;-75
2022/12/14 00:18:53;;;;;;;26.63;11.93;;;;;;;-1.78;100.00;100137.88;4983627;28;20039;-75
2022/12/14 00:21:20;;;;;;;21.77;12.43;;;;;;;-1.80;100.00;100119.56;5015974;28;20040;-75
2022/12/14 00:23:47;;;;;;;20.10;12.50;;;;;;;-1.63;100.00;100143.81;5016411;28;20033;-75
2022/12/14 00:26:17;;;;;;;23.00;12.00;;;;;;;-1.55;100.00;100138.81;5032871;28;20151;-75
2022/12/14 00:28:43;;;;;;;31.10;12.57;;;;;;;-1.52;100.00;100128.06;5048723;28;20037;-76
2022/12/14 00:31:09;;;;;;;25.40;12.52;;;;;;;-1.49;100.00;100132.25;5015773;28;20025;-75
2022/12/14 00:33:36;;;;;;;19.73;8.60;;;;;;;-1.47;100.00;100135.63;5016323;28;20040;-75
2022/12/14 00:36:02;;;;;;;17.30;8.70;;;;;;;-1.51;100.00;100137.63;5016007;28;20033;-75
2022/12/14 00:38:28;;;;;;;30.30;15.40;;;;;;;-1.41;100.00;100140.44;5015870;28;20037;-75
2022/12/14 00:40:54;;;;;;;25.30;15.98;;;;;;;-1.26;100.00;100139.28;4999830;28;20038;-76
2022/12/14 00:43:20;;;;;;;31.98;12.25;;;;;;;-1.33;100.00;100124.88;5032006;28;20053;-78
2022/12/14 00:45:46;;;;;;;14.02;8.60;;;;;;;-1.30;100.00;100137.00;5032256;28;20025;-76
2022/12/14 00:48:13;;;;;;;26.02;11.38;;;;;;;-1.27;100.00;100140.25;4999661;28;20036;-74
2022/12/14 00:50:38;;;;;;;26.10;9.88;;;;;;;-1.23;100.00;100141.69;4999787;28;20052;-75
2022/12/14 00:53:04;;;;;;;21.73;11.45;;;;;;;-1.16;100.00;100150.00;4999650;28;20459;-76
2022/12/14 00:55:35;;;;;;;26.10;13.13;;;;;;;-1.08;100.00;100131.78;5015780;28;20025;-75
2022/12/14 00:58:01;;;;;;;25.30;16.15;;;;;;;-1.01;100.00;100135.63;5032056;28;20052;-75
2022/12/14 01:00:27;;;;;;;32.15;15.65;;;;;;;-0.88;100.00;100132.91;5015881;28;20463;-75
2022/12/14 01:02:53;;;;;;;25.83;13.82;;;;;;;-0.81;100.00;100125.34;5015940;28;20049;-74
2022/12/14 01:05:18;;;;;;;34.03;21.02;;;;;;;-0.66;100.00;100132.09;4999635;28;20033;-76
2022/12/14 01:07:44;;;;;;;36.00;20.30;;;;;;;-0.59;100.00;100125.34;4999258;28;20539;-77
2022/12/14 01:10:10;;;;;;;36.80;22.42;;;;;;;-0.53;100.00;100135.47;4999345;28;20025;-75
2022/12/14 01:12:35;;;;;;;34.92;20.80;;;;;;;-0.52;100.00;100117.81;4999482;28;20464;-75
2022/12/14 01:15:01;;;;;;;29.33;16.73;;;;;;;-0.60;100.00;100110.50;5015206;28;20436;-75
2022/12/14 01:17:27;;;;;;;28.77;15.07;;;;;;;-0.71;100.00;100123.69;5015678;28;20052;-76
2022/12/14 01:19:53;;;;;;;24.55;13.75;;;;;;;-0.78;100.00;100135.69;5015073;28;20472;-76
2022/12/14 01:22:18;;;;;;;26.77;17.52;;;;;;;-0.84;100.00;100129.06;4999258;28;20361;-76
2022/12/14 01:24:47;;;;;;;32.53;14.35;;;;;;;-0.91;100.00;100136.59;5016043;28;20037;-76
2022/12/14 01:27:13;;;;;;;23.42;14.43;;;;;;;-0.93;100.00;100146.47;5018142;28;20040;-76
2022/12/14 01:29:38;;;;;;;20.58;11.70;;;;;;;-0.93;100.00;100141.19;5003350;28;20034;-75
2022/12/14 01:32:04;;;;;;;37.83;22.73;;;;;;;-0.89;100.00;100147.91;5003470;28;20072;-75
2022/12/14 01:34:31;;;;;;;22.63;13.90;;;;;;;-0.76;100.00;100150.44;5035469;28;20434;-76
2022/12/14 01:36:56;;;;;;;15.27;10.25;;;;;;;-0.68;100.00;100150.69;5019178;28;20030;-75
2022/12/14 01:39:22;;;;;;;24.88;14.20;;;;;;;-0.70;100.00;100141.19;5019206;28;20037;-76
2022/12/14 01:41:53;;;;;;;21.80;11.95;;;;;;;-0.78;100.00;100156.78;5003047;28;20049;-76
2022/12/14 01:44:18;;;;;;;17.33;10.23;;;;;;;-1.00;100.00;100123.28;5035944;28;20038;-77
2022/12/14 01:46:49;;;;;;;22.40;14.50;;;;;;;-0.97;100.00;100150.28;5037055;28;20029;-76
2022/12/14 01:49:34;;;;;;;25.67;13.07;;;;;;;-1.09;100.00;100161.75;5035100;28;20035;-76
2022/12/14 01:52:08;;;;;;;22.92;13.27;;;;;;;-1.30;100.00;100153.66;5035395;28;20026;-76
2022/12/14 01:54:36;;;;;;;27.17;12.02;;;;;;;-1.27;100.00;100169.28;5035485;28;20041;-75
2022/12/14 01:57:01;;;;;;;25.25;14.07;;;;;;;-1.28;100.00;100156.19;5002989;28;20033;-75
2022/12/14 01:59:33;;;;;;;20.90;13.95;;;;;;;-1.27;100.00;100160.50;5002425;28;20033;-75
2022/12/14 02:02:01;;;;;;;30.40;18.10;;;;;;;-1.34;100.00;100147.78;5035553;28;20025;-75
2022/12/14 02:04:27;;;;;;;28.65;13.35;;;;;;;-1.31;100.00;100151.16;5035159;28;20038;-76
2022/12/14 02:06:53;;;;;;;30.95;18.17;;;;;;;-1.26;100.00;100151.66;5002940;28;20103;-76
2022/12/14 02:09:21;;;;;;;19.10;9.10;;;;;;;-1.29;100.00;100144.81;5002526;28;20037;-74
2022/12/14 02:12:01;;;;;;;30.98;18.48;;;;;;;-1.19;100.00;100145.81;5002603;28;20056;-76
2022/12/14 02:14:27;;;;;;;30.98;18.10;;;;;;;-1.23;100.00;100148.78;5018832;28;20120;-75
2022/12/14 02:16:54;;;;;;;32.08;20.77;;;;;;;-1.15;100.00;100149.88;5018351;28;20125;-75
2022/12/14 02:19:20;;;;;;;26.50;14.88;;;;;;;-1.18;100.00;100152.75;5018366;28;20033;-76
2022/12/14 02:22:03;;;;;;;25.10;16.25;;;;;;;-1.22;100.00;100163.63;5002273;28;20434;-76
2022/12/14 02:25:00;;;;;;;28.20;19.77;;;;;;;-1.20;100.00;100157.28;5018832;28;20487;-75
2022/12/14 02:27:44;;;;;;;15.10;8.65;;;;;;;-1.35;100.00;100167.22;5018622;28;20021;-75
2022/12/14 02:30:34;;;;;;;20.55;13.63;;;;;;;-1.62;100.00;100127.88;5034717;28;20032;-75
2022/12/14 02:33:21;;;;;;;20.63;13.18;;;;;;;-1.79;100.00;100130.94;5004007;28;20041;-76
2022/12/14 02:36:08;;;;;;;27.02;18.13;;;;;;;-1.53;100.00;100172.97;5034837;28;20030;-77
2022/12/14 02:39:00;;;;;;;23.13;14.88;;;;;;;-1.57;100.00;100177.63;5018550;28;20034;-75
2022/12/14 02:41:57;;;;;;;14.80;10.03;;;;;;;-1.75;100.00;100179.81;5018286;28;20033;-75
2022/12/14 02:44:48;;;;;;;14.98;10.23;;;;;;;-1.88;100.00;100179.88;5001981;28;20037;-74
2022/12/14 02:47:22;;;;;;;16.23;10.88;;;;;;;-1.87;100.00;100186.81;5051514;28;20052;-75
2022/12/14 02:50:06;;;;;;;17.43;10.60;;;;;;;-1.79;100.00;100189.75;5036111;28;20038;-75
2022/12/14 02:52:57;;;;;;;26.40;16.17;;;;;;;-1.70;100.00;100195.31;5019180;28;20103;-76
2022/12/14 02:55:29;;;;;;;16.98;10.57;;;;;;;-1.73;100.00;100196.38;5036301;28;20504;-75
2022/12/14 02:58:21;;;;;;;16.90;10.90;;;;;;;-1.74;100.00;100197.31;5034461;28;20590;-75
2022/12/14 03:00:47;;;;;;;13.98;9.13;;;;;;;-1.82;100.00;100197.03;5033703;28;20125;-76
2022/12/14 03:03:12;;;;;;;15.35;10.68;;;;;;;-1.87;100.00;100194.72;5017757;28;20120;-75
2022/12/14 03:05:38;;;;;;;16.70;10.88;;;;;;;-2.07;100.00;100166.31;5018002;28;20041;-75
2022/12/14 03:08:13;;;;;;;17.90;12.05;;;;;;;-1.99;100.00;100187.69;5017381;28;20061;-75
2022/12/14 03:10:48;;;;;;;16.70;9.10;;;;;;;-2.17;100.00;100167.94;5034138;28;20048;-76
2022/12/14 03:13:27;;;;;;;20.38;12.30;;;;;;;-2.08;100.00;100185.72;5033694;28;20100;-75
2022/12/14 03:15:58;;;;;;;21.35;12.65;;;;;;;-1.92;100.00;100198.66;5033928;28;20029;-75
2022/12/14 03:18:26;;;;;;;18.67;12.15;;;;;;;-1.92;100.00;100188.94;5001250;28;20614;-77
2022/12/14 03:20:53;;;;;;;14.32;10.40;;;;;;;-2.02;100.00;100188.75;5000997;28;20120;-75
2022/12/14 03:23:23;;;;;;;14.23;9.95;;;;;;;-2.00;100.00;100196.56;5016983;28;20498;-75
2022/12/14 03:26:20;;;;;;;10.13;6.30;;;;;;;-2.08;100.00;100189.19;5001457;28;20038;-75
2022/12/14 03:28:50;;;;;;;17.33;11.00;;;;;;;-1.99;100.00;100200.88;5032955;28;20065;-74
2022/12/14 03:31:41;;;;;;;12.10;6.32;;;;;;;-2.07;100.00;100200.56;5001213;28;20025;-75
2022/12/14 03:34:11;;;;;;;12.63;9.10;;;;;;;-2.22;100.00;100211.25;5033660;28;20116;-75
2022/12/14 03:36:49;;;;;;;11.23;7.78;;;;;;;-2.38;100.00;100208.00;5033708;28;20029;-75
2022/12/14 03:39:24;;;;;;;10.80;5.82;;;;;;;-2.60;100.00;100206.00;5033632;28;20653;-76
2022/12/14 03:42:32;;;;;;;10.27;6.40;;;;;;;-2.82;100.00;100214.50;5017067;28;20029;-75
2022/12/14 03:45:06;;;;;;;11.82;6.32;;;;;;;-3.13;100.00;100219.19;5027601;28;20067;-75
2022/12/14 03:47:47;;;;;;;4.18;2.75;;;;;;;-3.30;100.00;100226.50;5017091;28;20034;-75
2022/12/14 03:50:20;;;;;;;7.00;4.32;;;;;;;-3.35;100.00;100225.00;5016449;28;20026;-75
2022/12/14 03:52:52;;;;;;;;;;;;;;;-3.33;100.00;100227.56;5033536;28;20068;-75
2022/12/14 03:55:42;;;;;;;19.33;10.80;;;;;;;-3.34;100.00;100236.38;5033319;28;19932;-76
2022/12/14 03:58:20;;;;;;;18.13;9.07;;;;;;;-3.41;100.00;100211.44;5017084;28;20042;-76
2022/12/14 04:01:14;;;;;;;11.88;7.72;;;;;;;-3.33;100.00;100222.31;5000639;28;20124;-74
2022/12/14 04:03:40;;;;;;;7.05;4.25;;;;;;;-3.34;100.00;100228.47;5033135;28;20052;-75
2022/12/14 04:06:19;;;;;;;10.50;5.30;;;;;;;-3.34;100.00;100237.19;5016804;28;20127;-76
2022/12/14 04:08:51;;;;;;;8.55;6.10;;;;;;;-3.47;100.00;100240.72;5016615;28;20479;-76
2022/12/14 04:19:48;;;;;;;11.13;6.68;;;;;;;-3.79;100.00;100241.00;5032993;28;20106;-75
2022/12/14 04:22:17;;;;;;;9.10;5.90;;;;;;;-3.89;100.00;100237.25;5016134;28;20399;-75
2022/12/14 04:27:51;;;;;;;8.73;5.32;;;;;;;-4.08;100.00;100225.28;5018833;28;20056;-76
2022/12/14 04:30:17;;;;;;;16.55;6.75;;;;;;;-4.08;100.00;100241.03;5016150;28;20361;-76
2022/12/14 04:32:48;;;;;;;4.38;3.13;;;;;;;-4.24;100.00;100240.31;4999734;28;20099;-75
2022/12/14 04:35:26;;;;;;;13.60;5.93;;;;;;;-4.39;100.00;100233.34;5032433;28;20033;-74
2022/12/14 04:37:55;;;;;;;14.07;5.97;;;;;;;-4.50;100.00;100250.63;5016373;28;20474;-76
2022/12/14 04:40:25;;;;;;;4.40;3.25;;;;;;;-4.62;100.00;100253.97;5015927;28;20026;-75
2022/12/14 04:43:14;;;;;;;12.00;5.95;;;;;;;-4.54;100.00;100246.47;5000122;28;20132;-77
2022/12/14 04:45:44;;;;;;;7.93;5.50;;;;;;;-4.46;100.00;100251.28;5015814;28;20091;-75
2022/12/14 04:48:16;;;;;;;13.40;5.30;;;;;;;-4.46;100.00;100252.09;5032659;28;20057;-76
2022/12/14 04:50:46;;;;;;;13.23;6.40;;;;;;;-4.49;100.00;100244.44;5016059;28;20037;-74
2022/12/14 04:53:15;;;;;;;8.65;5.30;;;;;;;-4.50;100.00;100250.63;5032160;28;20446;-76
2022/12/14 04:56:07;;;;;;;11.32;5.75;;;;;;;-4.61;100.00;100266.13;5032442;28;20112;-76
2022/12/14 04:58:34;;;;;;;11.40;5.03;;;;;;;-4.74;100.00;100258.16;5015868;28;20098;-75
2022/12/14 05:01:11;;;;;;;6.13;4.45;;;;;;;-4.72;100.00;100268.56;4998878;28;20038;-75
2022/12/14 05:04:03;;;;;;;7.30;3.33;;;;;;;-4.68;100.00;100267.47;4999597;28;20124;-75
2022/12/14 05:06:39;;;;;;;4.88;3.60;;;;;;;-4.60;100.00;100272.22;5000111;28;20048;-76
2022/12/14 05:09:29;;;;;;;7.25;4.80;;;;;;;-4.51;100.00;100269.91;5048653;28;20044;-76
2022/12/14 05:12:19;;;;;;;8.85;4.50;;;;;;;-4.35;100.00;100267.22;4999277;28;20487;-75
2022/12/14 05:15:15;;;;;;;9.32;4.68;;;;;;;-4.39;100.00;100264.84;5032125;28;20025;-75
2022/12/14 05:17:40;;;;;;;9.32;4.45;;;;;;;-4.23;100.00;100270.88;5032673;28;20026;-75
2022/12/14 05:20:14;;;;;;;12.55;5.97;;;;;;;-4.15;100.00;100268.63;5015764;28;20055;-75
2022/12/14 05:22:40;;;;;;;12.50;7.72;;;;;;;-4.07;100.00;100266.38;5015561;28;20065;-75
2022/12/14 05:25:06;;;;;;;3.50;2.92;;;;;;;-3.95;100.00;100277.06;4999172;28;20037;-75
2022/12/14 05:27:32;;;;;;;10.50;5.00;;;;;;;-3.92;100.00;100271.59;4998974;28;20021;-75
2022/12/14 05:29:57;;;;;;;7.40;3.85;;;;;;;-3.84;100.00;100267.56;5015366;28;20030;-76
2022/12/14 05:32:23;;;;;;;13.52;6.18;;;;;;;-3.71;100.00;100272.88;5015573;28;20041;-75
2022/12/14 05:34:49;;;;;;;8.35;3.78;;;;;;;-3.71;100.00;100272.88;5015074;28;20055;-75
2022/12/14 05:37:14;;;;;;;9.35;5.43;;;;;;;-3.64;100.00;100273.34;4999245;28;20044;-74
2022/12/14 05:39:40;;;;;;;4.35;3.17;;;;;;;-3.40;100.00;100279.66;5031969;28;20392;-76
2022/12/14 05:42:06;;;;;;;13.35;5.90;;;;;;;-3.21;100.00;100275.84;5015276;28;20503;-76
2022/12/14 05:44:31;;;;;;;15.43;4.70;;;;;;;-3.10;100.00;100268.09;5015422;28;20396;-75
2022/12/14 05:46:57;;;;;;;13.77;4.82;;;;;;;-2.98;100.00;100271.72;5031637;28;20083;-75
2022/12/14 05:49:24;;;;;;;11.07;5.22;;;;;;;-2.90;100.00;100272.06;4999343;28;20033;-74
2022/12/14 05:51:50;;;;;;;5.82;4.20;;;;;;;-2.84;100.00;100269.00;5047694;28;20426;-76
2022/12/14 05:54:16;;;;;;;4.03;3.65;;;;;;;-2.74;100.00;100274.53;5015342;28;20107;-75
2022/12/14 05:56:41;;;;;;;7.55;5.57;;;;;;;-2.74;100.00;100280.63;5015163;28;20060;-76
2022/12/14 05:59:09;;;;;;;7.15;4.03;;;;;;;-2.88;100.00;100276.28;5015233;28;20029;-75
2022/12/14 06:01:35;;;;;;;7.20;3.85;;;;;;;-3.07;100.00;100277.56;5031385;28;20411;-75
2022/12/14 06:04:00;;;;;;;3.53;1.80;;;;;;;-3.34;100.00;100281.06;5015448;28;20041;-75
2022/12/14 06:06:26;;;;;;;4.00;3.30;;;;;;;-3.46;100.00;100279.25;5015193;28;20383;-75
2022/12/14 06:08:52;;;;;;;4.43;2.75;;;;;;;-3.43;100.00;100277.25;5048356;28;20100;-76
2022/12/14 06:11:22;;;;;;;3.22;2.50;;;;;;;-3.41;100.00;100288.50;5015300;28;20057;-76
2022/12/14 06:13:48;;;;;;;10.82;4.55;;;;;;;-3.38;100.00;100276.97;5002360;28;20471;-76
2022/12/14 06:16:17;;;;;;;5.82;3.47;;;;;;;-3.39;100.00;100283.13;5002330;28;20051;-75
2022/12/14 06:18:44;;;;;;;8.63;3.50;;;;;;;-3.42;100.00;100284.19;5018808;28;20033;-75
2022/12/14 06:21:11;;;;;;;4.25;2.88;;;;;;;-3.52;100.00;100283.06;5035206;28;20056;-76
2022/12/14 06:23:37;;;;;;;3.78;2.47;;;;;;;-3.65;100.00;100276.91;5018703;28;20029;-75
2022/12/14 06:26:02;;;;;;;8.80;3.63;;;;;;;-3.78;100.00;100277.69;5018881;28;20087;-76
2022/12/14 06:28:28;;;;;;;2.97;1.92;;;;;;;-3.91;100.00;100275.94;5018368;28;20037;-75
2022/12/14 06:30:54;;;;;;;9.23;3.28;;;;;;;-3.99;100.00;100281.66;5018286;28;20037;-75
2022/12/14 06:33:19;;;;;;;4.60;3.08;;;;;;;-4.05;100.00;100290.75;5034810;28;20037;-75
2022/12/14 06:35:45;;;;;;;3.67;2.88;;;;;;;-4.14;100.00;100283.44;5018144;28;20422;-76
2022/12/14 06:38:12;;;;;;;6.97;2.85;;;;;;;-4.25;100.00;100291.13;5001755;28;20123;-75
2022/12/14 06:40:38;;;;;;;4.97;2.92;;;;;;;-4.32;100.00;100287.19;5018245;28;20079;-75
2022/12/14 06:43:04;;;;;;;7.57;3.33;;;;;;;-4.44;100.00;100289.59;5001877;28;20471;-76
2022/12/14 06:45:30;;;;;;;3.28;2.13;;;;;;;-4.42;100.00;100287.75;5001821;28;20037;-75
2022/12/14 06:47:57;;;;;;;5.88;3.20;;;;;;;-4.49;100.00;100291.66;5018140;28;20459;-75
2022/12/14 06:50:24;;;;;;;4.35;2.67;;;;;;;-4.67;100.00;100277.84;5034508;28;20029;-75
2022/12/14 06:52:50;;;;;;;2.25;1.95;;;;;;;-4.74;100.00;100294.88;5050859;28;20029;-76
2022/12/14 06:55:16;;;;;;;4.70;2.17;;;;;;;-4.73;100.00;100293.94;5034417;28;20029;-77
2022/12/14 06:57:42;;;;;;;2.30;1.98;;;;;;;-4.71;100.00;100296.47;5017709;28;20083;-75
2022/12/14 07:00:12;;;;;;;6.10;2.28;;;;;;;-4.64;100.00;100292.56;5034728;28;20041;-75
2022/12/14 07:02:38;;;;;;;2.17;1.50;;;;;;;-4.42;100.00;100297.38;5017901;28;20032;-75
2022/12/14 07:05:05;;;;;;;2.83;1.83;;;;;;;-4.24;100.00;100301.50;5001779;28;20040;-75
2022/12/14 07:07:34;;;;;;;2.55;2.03;;;;;;;-4.12;100.00;100304.34;5034346;28;20033;-76
2022/12/14 07:10:01;;;;;;;1.98;1.77;;;;;;;-3.94;100.00;100305.84;5034226;28;20038;-75
2022/12/14 07:12:27;;;;;;;4.35;2.50;;;;;;;-4.02;100.00;100311.59;5001325;28;20033;-76
2022/12/14 07:14:53;;;;;;;3.28;1.88;;;;;;;-4.07;100.00;100305.75;5033905;28;20025;-75
2022/12/14 07:17:19;;;;;;;4.20;1.45;;;;;;;-3.99;100.00;100316.63;5017508;28;20124;-76
2022/12/14 07:19:45;;;;;;;0.85;0.75;;;;;;;-4.12;100.00;100299.09;5017343;28;20021;-75
2022/12/14 07:22:12;;;;;;;3.58;2.08;;;;;;;-4.08;100.00;100318.97;5017183;28;20041;-75
2022/12/14 07:24:39;;;;;;;4.97;2.47;;;;;;;-4.12;100.00;100330.63;5033180;28;20068;-75
2022/12/14 07:27:05;;;;;;;4.28;1.90;;;;;;;-4.26;100.00;100328.78;5001303;28;20091;-75
2022/12/14 07:29:31;;;;;;;2.03;1.65;;;;;;;-4.39;100.00;100328.69;5033580;28;20387;-75
2022/12/14 07:31:57;;;;;;;3.45;2.10;;;;;;;-4.44;100.00;100331.59;5017004;28;20029;-75
2022/12/14 07:34:23;;;;;;;1.60;1.48;;;;;;;-4.47;100.00;100329.16;5016865;28;20036;-75
2022/12/14 07:36:50;;;;;;;1.70;1.25;;;;;;;-4.64;100.00;100331.91;5033951;28;20034;-76
2022/12/14 07:39:16;;;;;;;4.55;1.88;;;;;;;-4.78;100.00;100337.13;5049965;28;20021;-75
2022/12/14 07:41:42;;;;;;;4.07;2.17;;;;;;;-4.91;100.00;100347.47;5001027;28;20475;-76
2022/12/14 07:44:08;;;;;;;0.95;0.95;;;;;;;-5.05;100.00;100347.38;5033733;28;20030;-75
2022/12/14 07:46:34;;;;;;;0.82;0.82;;;;;;;-4.98;100.00;100348.72;5017234;28;20441;-75
2022/12/14 07:49:00;;;;;;;6.65;2.35;;;;;;;-4.89;100.00;100346.44;5000787;28;20091;-76
2022/12/14 07:51:28;;;;;;;4.93;2.28;;;;;;;-4.97;100.00;100351.28;5001224;28;20091;-75
2022/12/14 07:53:55;;;;;;;4.78;2.60;;;;;;;-5.12;100.00;100344.28;5049644;28;20053;-76
2022/12/14 07:56:25;;;;;;;2.15;1.45;;;;;;;-5.23;100.00;100354.53;5016807;28;20032;-75
2022/12/14 07:58:53;;;;;;;4.60;2.22;;;;;;;-5.27;100.00;100355.59;5050206;28;20076;-75
2022/12/14 08:01:28;;;;;;;3.58;2.03;;;;;;;-5.32;100.00;100366.34;5033147;28;20026;-76
2022/12/14 08:04:15;;;;;;;7.13;2.45;;;;;;;-5.39;100.00;100357.97;5016542;28;20036;-75
2022/12/14 08:06:42;;;;;;;4.13;2.20;;;;;;;-5.45;100.00;100360.94;5003098;28;20037;-76
2022/12/14 08:09:09;;;;;;;6.57;2.45;;;;;;;-5.47;100.00;100370.66;5033179;28;20069;-75
2022/12/14 08:11:35;;;;;;;4.10;2.38;;;;;;;-5.53;100.00;100370.97;5016611;28;20360;-75
2022/12/14 08:14:04;;;;;;;6.97;3.83;;;;;;;-5.53;100.00;100365.72;5033220;28;20040;-75
2022/12/14 08:16:30;;;;;;;4.35;3.03;;;;;;;-5.43;100.00;100373.94;5032985;28;20057;-75
2022/12/14 08:18:57;;;;;;;4.55;2.30;;;;;;;-5.33;100.00;100383.00;5033025;28;20033;-75
2022/12/14 08:21:23;;;;;;;3.35;2.30;;;;;;;-5.24;100.00;100389.50;5000283;28;20124;-76
2022/12/14 08:23:50;;;;;;;4.72;2.80;;;;;;;-5.16;100.00;100396.03;5032624;28;20356;-75
2022/12/14 08:26:16;;;;;;;3.47;2.38;;;;;;;-5.18;100.00;100403.13;5000650;28;20570;-76
2022/12/14 08:28:42;;;;;;;2.58;2.05;;;;;;;-5.35;100.00;100390.09;5000400;28;20191;-76
2022/12/14 08:31:10;;;;;;;4.07;2.20;;;;;;;-5.49;100.00;100382.16;5000078;28;20064;-75
2022/12/14 08:33:37;;;;;;;3.22;1.98;;;;;;;-5.68;100.00;100387.53;5015818;28;20531;-75
2022/12/14 08:36:14;;;;;;;2.00;1.67;;;;;;;-5.61;100.00;100401.97;5032455;28;20028;-76
2022/12/14 08:38:40;;;;;;;1.73;1.38;;;;;;;-5.58;100.00;100407.06;5032628;28;20033;-75
2022/12/14 08:41:13;;;;;;;3.40;1.38;;;;;;;-5.46;100.00;100410.78;4999784;28;20040;-76
2022/12/14 08:43:39;;;;;;;3.45;2.50;;;;;;;-5.34;100.00;100404.91;5032589;28;20036;-76
2022/12/14 08:46:06;;;;;;;4.03;2.08;;;;;;;-5.02;100.00;100418.03;5032571;28;20530;-77
2022/12/14 08:48:32;;;;;;;3.70;1.75;;;;;;;-4.87;100.00;100404.91;5032198;28;20041;-75
2022/12/14 08:51:02;;;;;;;9.65;2.92;;;;;;;-4.83;100.00;100415.22;4999330;28;20380;-75
2022/12/14 08:53:28;;;;;;;8.23;3.05;;;;;;;-4.87;100.00;100418.00;5032560;28;20036;-75
2022/12/14 08:55:53;;;;;;;8.23;2.75;;;;;;;-4.81;100.00;100426.47;4999626;28;20029;-76
2022/12/14 08:58:19;;;;;;;4.65;2.42;;;;;;;-4.88;100.00;100429.41;5015888;28;20494;-76
2022/12/14 09:00:45;;;;;;;4.90;2.60;;;;;;;-5.00;100.00;100437.97;5031892;28;20471;-75
2022/12/14 09:03:10;;;;;;;7.20;3.17;;;;;;;-5.17;100.00;100440.66;5015991;28;20087;-75
2022/12/14 09:05:37;;;;;;;3.45;2.40;;;;;;;-5.13;100.00;100447.44;5016122;28;20037;-75
2022/12/14 09:08:03;;;;;;;5.07;2.47;;;;;;;-5.04;100.00;100452.19;4999611;28;20553;-74
2022/12/14 09:10:29;;;;;;;2.42;1.90;;;;;;;-5.03;100.00;100447.78;5032480;28;20549;-75
2022/12/14 09:12:55;;;;;;;5.00;2.25;;;;;;;-5.01;100.00;100457.25;4999482;28;20474;-75
2022/12/14 09:15:21;;;;;;;4.50;2.38;;;;;;;-5.13;100.00;100450.91;4999355;28;20125;-76
2022/12/14 09:17:48;;;;;;;6.40;3.13;;;;;;;-4.96;100.00;100470.13;5015806;28;20105;-76
2022/12/14 09:20:14;;;;;;;0.88;0.73;;;;;;;-4.81;100.00;100471.06;5049674;28;20073;-76
2022/12/14 09:22:40;;;;;;;6.20;3.15;;;;;;;-4.72;100.00;100474.00;5016535;28;20064;-75
2022/12/14 09:25:05;;;;;;;5.85;2.97;;;;;;;-4.84;100.00;100450.22;4999724;28;20382;-76
2022/12/14 09:27:32;;;;;;;2.38;1.73;;;;;;;-4.60;100.00;100474.25;5032373;28;20464;-74
2022/12/14 09:30:06;;;;;;;5.43;2.88;;;;;;;-4.56;100.00;100484.47;5032482;28;20033;-75
2022/12/14 09:32:39;;;;;;;4.80;2.70;;;;;;;-4.63;100.00;100491.03;5001279;28;20037;-75
2022/12/14 09:35:05;;;;;;;7.93;2.25;;;;;;;-4.71;100.00;100491.44;4999245;28;20047;-75
2022/12/14 09:37:30;;;;;;;4.13;2.95;;;;;;;-4.65;100.00;100490.25;5015404;28;20104;-75
2022/12/14 09:39:56;;;;;;;6.65;2.80;;;;;;;-4.38;100.00;100493.09;5032269;28;20120;-76
2022/12/14 09:42:40;;;;;;;6.60;2.67;;;;;;;-4.00;100.00;100503.19;5015557;28;20143;-75
2022/12/14 09:45:23;;;;;;;4.88;2.55;;;;;;;-3.66;100.00;100507.28;5015592;28;20112;-75
2022/12/14 09:47:59;;;;;;;5.80;2.60;;;;;;;-3.18;100.00;100509.69;5033791;28;20045;-75
2022/12/14 09:50:25;;;;;;;4.95;3.00;;;;;;;-2.33;100.00;100516.63;5052223;28;20033;-75
2022/12/14 09:53:04;;;;;;;5.60;3.00;;;;;;;-2.18;100.00;100513.91;5003256;28;20045;-75
2022/12/14 09:55:37;;;;;;;11.80;8.70;;;;;;;-1.69;100.00;100513.28;5035857;28;20029;-76
2022/12/14 09:58:06;;;;;;;7.85;5.25;;;;;;;-1.43;100.00;100512.41;5019165;28;20056;-74
2022/12/14 10:00:36;;;;;;;13.48;9.98;;;;;;;-1.44;100.00;100515.97;5035919;28;20037;-75
2022/12/14 10:03:18;;;;;;;17.38;11.73;;;;;;;-1.19;100.00;100525.69;5019280;28;20463;-76
2022/12/14 10:06:05;;;;;;;6.93;4.03;;;;;;;-0.87;100.00;100530.50;5019473;28;20036;-75
2022/12/14 10:08:42;;;;;;;4.53;3.75;;;;;;;-0.54;100.00;100516.69;5019225;28;20029;-75
2022/12/14 10:11:14;;;;;;;6.10;4.20;;;;;;;0.21;100.00;100518.25;5019416;28;20328;-77
2022/12/14 10:14:07;;;;;;;4.68;2.95;;;;;;;1.84;95.46;100526.72;5035327;28;20045;-77
2022/12/14 10:17:02;;;;;;;6.20;3.60;;;;;;;2.97;92.19;100530.47;5035721;28;20036;-78
2022/12/14 10:19:31;;;;;;;10.40;3.75;;;;;;;3.80;88.73;100536.44;5002836;28;20041;-79
2022/12/14 10:21:59;;;;;;;5.28;3.00;;;;;;;4.31;85.46;100534.53;5035302;28;20108;-78
2022/12/14 10:24:30;;;;;;;4.40;2.55;;;;;;;4.76;83.72;100542.75;5018992;28;20037;-77
2022/12/14 10:26:55;;;;;;;3.00;2.08;;;;;;;4.98;82.19;100533.56;5000773;28;20026;-78
2022/12/14 10:29:27;;;;;;;7.05;3.42;;;;;;;4.90;82.31;100546.78;5017408;28;20383;-78
2022/12/14 10:32:15;;;;;;;5.47;3.38;;;;;;;4.90;83.12;100551.28;5019060;28;20045;-78
2022/12/14 10:34:42;;;;;;;16.85;5.03;;;;;;;5.08;82.92;100541.53;5035260;28;20613;-79
2022/12/14 10:37:23;;;;;;;13.75;7.47;;;;;;;5.41;81.35;100560.63;5035334;28;20344;-78
2022/12/14 10:40:07;;;;;;;10.48;4.88;;;;;;;4.93;82.97;100567.81;5035296;28;20041;-78
2022/12/14 10:42:33;;;;;;;6.18;3.80;;;;;;;4.45;84.98;100568.72;5018423;28;20040;-78
2022/12/14 10:45:19;;;;;;;7.93;5.25;;;;;;;4.89;83.75;100566.41;5036146;28;20033;-77
2022/12/14 10:47:49;;;;;;;14.40;9.38;;;;;;;4.51;84.16;100562.81;5035983;28;20530;-78
2022/12/14 10:50:51;;;;;;;7.20;4.03;;;;;;;3.95;86.43;100574.16;5002217;28;20051;-76
2022/12/14 10:53:22;;;;;;;5.18;2.88;;;;;;;3.14;90.35;100579.47;5018355;28;20045;-78
2022/12/14 10:55:50;;;;;;;4.93;2.97;;;;;;;3.04;91.55;100576.78;5002150;28;20111;-76
2022/12/14 10:58:16;;;;;;;6.10;2.28;;;;;;;3.60;88.16;100578.13;5017491;28;20069;-77
2022/12/14 11:00:42;;;;;;;3.10;2.35;;;;;;;3.68;89.12;100574.78;5017680;28;20561;-76
2022/12/14 11:03:13;;;;;;;2.20;1.73;;;;;;;3.66;88.21;100569.59;5018458;28;20033;-76
2022/12/14 11:06:01;;;;;;;2.42;1.70;;;;;;;4.13;87.07;100579.66;5034535;28;20041;-76
2022/12/14 11:08:40;;;;;;;2.80;1.60;;;;;;;4.48;84.43;100581.75;5033861;28;20045;-76
2022/12/14 11:11:25;;;;;;;3.80;1.60;;;;;;;4.29;84.64;100579.09;5018241;28;20056;-77
2022/12/14 11:14:06;;;;;;;4.03;2.00;;;;;;;3.97;86.77;100570.38;5018172;28;20093;-78
2022/12/14 11:16:40;;;;;;;8.40;3.05;;;;;;;3.84;88.59;100582.25;5050916;28;20115;-78
2022/12/14 11:19:18;;;;;;;2.85;1.95;;;;;;;3.79;88.57;100577.34;5018290;28;20072;-77
2022/12/14 11:21:44;;;;;;;4.50;2.33;;;;;;;4.00;87.37;100571.09;5001806;28;20033;-79
2022/12/14 11:24:27;;;;;;;4.97;2.85;;;;;;;2.97;91.52;100586.22;5017902;28;20152;-76
2022/12/14 11:26:54;;;;;;;7.18;2.83;;;;;;;2.41;95.99;100591.84;5017958;28;20490;-78
2022/12/14 11:29:33;;;;;;;5.88;2.90;;;;;;;1.97;99.17;100591.03;5034120;28;20512;-79
2022/12/14 11:31:59;;;;;;;4.60;2.00;;;;;;;1.97;99.42;100583.91;5034220;28;20041;-77
2022/12/14 11:34:33;;;;;;;4.80;2.63;;;;;;;2.39;97.81;100585.81;5034049;28;20396;-78
2022/12/14 11:37:21;;;;;;;4.78;2.42;;;;;;;2.71;96.18;100587.59;5050284;28;20112;-77
2022/12/14 11:39:59;;;;;;;7.47;3.00;;;;;;;2.93;94.03;100582.13;5001454;28;20032;-77
2022/12/14 11:42:26;;;;;;;5.75;2.97;;;;;;;2.59;96.71;100598.28;5050604;28;20029;-77
2022/12/14 11:44:52;;;;;;;8.10;2.97;;;;;;;2.51;96.52;100592.75;5017649;28;20060;-77